createdAt,value
2022-10-15T00:02:10.337Z,33.75
2022-10-15T00:05:12.521Z,29.15
2022-10-15T00:08:14.597Z,33.92
2022-10-15T00:11:22.964Z,29.77
2022-10-15T00:14:25.065Z,35.15
2022-10-15T00:17:27.168Z,31.88
2022-10-15T00:20:30.289Z,38.17
2022-10-15T00:23:32.559Z,33.72
2022-10-15T00:26:34.857Z,31.58
2022-10-15T00:29:37.112Z,33.45
2022-10-15T00:32:39.672Z,34.10
2022-10-15T00:35:42.437Z,37.03
2022-10-15T00:38:44.613Z,27.33
2022-10-15T00:41:46.956Z,32.15
2022-10-15T00:44:55.485Z,27.42
2022-10-15T00:47:57.644Z,31.00
2022-10-15T00:51:04.350Z,30.75
2022-10-15T00:54:06.676Z,30.52
2022-10-15T00:57:10.289Z,27.00
2022-10-15T01:00:15.377Z,33.95
2022-10-15T01:03:17.535Z,36.55
2022-10-15T01:06:19.810Z,32.50
2022-10-15T01:09:22.688Z,29.88
2022-10-15T01:12:58.531Z,39.35
2022-10-15T01:16:10.549Z,37.22
2022-10-15T01:19:32.389Z,35.63
2022-10-15T01:22:58.716Z,32.92
2022-10-15T01:26:25.628Z,37.22
2022-10-15T01:30:05.039Z,37.95
2022-10-15T01:33:22.269Z,37.35
2022-10-15T01:36:44.881Z,39.95
2022-10-15T01:39:57.730Z,34.38
2022-10-15T01:43:06.853Z,31.35
2022-10-15T01:46:29.210Z,31.08
2022-10-15T01:49:44.129Z,30.35
2022-10-15T01:52:48.191Z,34.28
2022-10-15T01:55:50.803Z,38.20
2022-10-15T01:58:56.292Z,35.80
2022-10-15T02:01:58.752Z,36.28
2022-10-15T02:05:01.239Z,29.60
2022-10-15T02:08:15.350Z,37.92
2022-10-15T02:11:19.905Z,33.03
2022-10-15T02:14:48.628Z,29.17
2022-10-15T02:18:00.354Z,35.38
2022-10-15T02:21:27.182Z,32.75
2022-10-15T02:24:36.679Z,38.25
2022-10-15T02:27:44.950Z,27.30
2022-10-15T02:30:51.083Z,39.03
2022-10-15T02:33:58.044Z,33.28
2022-10-15T02:37:05.294Z,38.67
2022-10-15T02:40:09.208Z,34.97
2022-10-15T02:43:14.707Z,39.60
2022-10-15T02:46:19.384Z,34.33
2022-10-15T02:49:21.700Z,25.42
2022-10-15T02:52:26.088Z,39.15
2022-10-15T02:55:28.452Z,32.10
2022-10-15T02:58:31.103Z,31.98
2022-10-15T03:01:34.781Z,30.23
2022-10-15T03:04:39.393Z,35.28
2022-10-15T03:07:41.855Z,34.05
2022-10-15T03:10:45.815Z,35.45
2022-10-15T03:13:48.622Z,39.22
2022-10-15T03:16:50.821Z,32.40
2022-10-15T03:19:52.995Z,35.22
2022-10-15T03:22:55.195Z,35.20
2022-10-15T03:25:57.713Z,26.98
2022-10-15T03:28:59.793Z,36.05
2022-10-15T03:32:28.318Z,33.03
2022-10-15T03:35:30.788Z,31.90
2022-10-15T03:38:33.165Z,33.47
2022-10-15T03:41:39.808Z,30.42
2022-10-15T03:44:42.209Z,38.25
2022-10-15T03:47:47.662Z,30.63
2022-10-15T03:50:49.778Z,28.10
2022-10-15T03:53:52.087Z,33.45
2022-10-15T03:56:54.563Z,30.30
2022-10-15T04:00:04.547Z,32.17
2022-10-15T04:03:14.871Z,28.70
2022-10-15T04:06:17.095Z,32.30
2022-10-15T04:09:20.529Z,40.22
2022-10-15T04:12:23.746Z,33.92
2022-10-15T04:15:27.894Z,29.73
2022-10-15T04:18:38.154Z,30.88
2022-10-15T04:21:40.323Z,33.40
2022-10-15T04:24:43.667Z,38.70
2022-10-15T04:27:49.698Z,31.13
2022-10-15T04:30:58.454Z,38.42
2022-10-15T04:34:00.875Z,29.23
2022-10-15T04:37:03.884Z,30.48
2022-10-15T04:40:06.836Z,36.08
2022-10-15T04:43:09.280Z,32.88
2022-10-15T04:46:11.685Z,32.90
2022-10-15T04:49:14.584Z,26.88
2022-10-15T04:52:17.222Z,31.48
2022-10-15T04:55:30.658Z,34.83
2022-10-15T04:58:36.204Z,36.13
2022-10-15T05:01:38.352Z,35.15
2022-10-15T05:04:44.145Z,35.85
2022-10-15T05:07:46.314Z,32.92
2022-10-15T05:10:48.466Z,33.35
2022-10-15T05:13:52.779Z,28.73
2022-10-15T05:16:55.018Z,35.45
2022-10-15T05:19:57.209Z,35.33
2022-10-15T05:23:04.488Z,30.02
2022-10-15T05:26:12.552Z,36.00
2022-10-15T05:29:14.833Z,27.45
2022-10-15T05:32:17.242Z,32.13
2022-10-15T05:35:20.088Z,26.92
2022-10-15T05:38:35.441Z,25.90
2022-10-15T05:41:38.205Z,32.30
2022-10-15T05:44:40.433Z,31.60
2022-10-15T05:47:42.492Z,34.35
2022-10-15T05:50:51.501Z,29.60
2022-10-15T05:53:59.248Z,28.92
2022-10-15T05:57:02.302Z,32.25
2022-10-15T06:00:08.397Z,29.85
2022-10-15T06:03:16.221Z,27.13
2022-10-15T06:06:20.986Z,26.23
2022-10-15T06:09:23.090Z,31.83
2022-10-15T06:12:25.224Z,40.17
2022-10-15T06:15:27.603Z,30.50
2022-10-15T06:18:29.718Z,30.33
2022-10-15T06:21:33.135Z,33.00
2022-10-15T06:24:35.264Z,31.73
2022-10-15T06:27:38.852Z,34.85
2022-10-15T06:30:40.960Z,25.33
2022-10-15T06:33:43.140Z,26.40
2022-10-15T06:36:45.902Z,23.45
2022-10-15T06:39:47.965Z,30.52
2022-10-15T06:42:50.163Z,33.25
2022-10-15T06:45:52.464Z,31.17
2022-10-15T06:48:55.936Z,30.67
2022-10-15T06:52:02.677Z,26.05
2022-10-15T06:55:06.520Z,25.05
2022-10-15T06:58:08.927Z,27.25
2022-10-15T07:01:11.034Z,33.53
2022-10-15T07:04:13.283Z,35.65
2022-10-15T07:07:15.552Z,32.10
2022-10-15T07:10:17.702Z,36.50
2022-10-15T07:13:19.899Z,37.72
2022-10-15T07:16:21.965Z,31.92
2022-10-15T07:19:24.249Z,37.47
2022-10-15T07:22:26.698Z,36.80
2022-10-15T07:25:29.560Z,34.80
2022-10-15T07:28:31.859Z,36.65
2022-10-15T07:31:34.452Z,34.47
2022-10-15T07:34:36.575Z,37.83
2022-10-15T07:37:38.640Z,33.10
2022-10-15T07:40:40.682Z,36.70
2022-10-15T07:43:43.504Z,30.88
2022-10-15T07:46:47.814Z,32.30
2022-10-15T07:49:49.894Z,38.20
2022-10-15T07:52:52.036Z,32.53
2022-10-15T07:55:54.204Z,31.95
2022-10-15T07:58:56.264Z,33.53
2022-10-15T08:01:58.519Z,34.95
2022-10-15T08:05:00.636Z,33.17
2022-10-15T08:08:03.524Z,31.20
2022-10-15T08:11:11.108Z,33.45
2022-10-15T08:14:13.264Z,36.28
2022-10-15T08:17:15.425Z,29.67
2022-10-15T08:20:17.580Z,28.63
2022-10-15T08:23:19.751Z,32.60
2022-10-15T08:26:23.198Z,31.95
2022-10-15T08:29:25.312Z,26.13
2022-10-15T08:32:27.401Z,34.55
2022-10-15T08:35:29.580Z,28.90
2022-10-15T08:38:32.138Z,32.03
2022-10-15T08:41:42.770Z,31.13
2022-10-15T08:44:47.357Z,31.52
2022-10-15T08:47:58.208Z,31.17
2022-10-15T08:51:06.279Z,32.08
2022-10-15T08:54:16.609Z,29.17
2022-10-15T08:57:37.689Z,30.33
2022-10-15T09:01:02.213Z,29.15
2022-10-15T09:04:47.133Z,33.03
2022-10-15T09:08:00.408Z,31.10
2022-10-15T09:11:27.692Z,34.33
2022-10-15T09:14:34.476Z,36.92
2022-10-15T09:17:37.604Z,36.55
2022-10-15T09:20:39.836Z,30.48
2022-10-15T09:23:43.891Z,35.72
2022-10-15T09:27:10.360Z,28.95
2022-10-15T09:30:51.110Z,33.03
2022-10-15T09:34:03.278Z,27.00
2022-10-15T09:37:17.823Z,31.38
2022-10-15T09:40:36.511Z,32.50
2022-10-15T09:43:41.682Z,27.67
2022-10-15T09:46:48.969Z,34.30
2022-10-15T09:49:51.475Z,30.33
2022-10-15T09:53:38.175Z,36.60
2022-10-15T09:56:49.684Z,33.42
2022-10-15T09:59:57.266Z,26.88
2022-10-15T10:03:07.851Z,25.13
2022-10-15T10:06:13.199Z,27.05
2022-10-15T10:09:25.166Z,35.40
2022-10-15T10:12:35.999Z,29.33
2022-10-15T10:15:42.144Z,29.55
2022-10-15T10:19:00.945Z,34.70
2022-10-15T10:22:18.263Z,36.03
2022-10-15T10:25:29.621Z,31.02
2022-10-15T10:28:50.682Z,29.30
2022-10-15T10:31:53.545Z,29.42
2022-10-15T10:35:03.787Z,33.60
2022-10-15T10:38:06.060Z,37.13
2022-10-15T10:41:12.020Z,36.25
2022-10-15T10:44:27.607Z,35.47
2022-10-15T10:47:38.285Z,38.22
2022-10-15T10:50:41.290Z,38.15
2022-10-15T10:54:09.424Z,35.15
2022-10-15T10:57:13.909Z,38.28
2022-10-15T11:00:42.889Z,28.80
2022-10-15T11:03:46.365Z,30.58
2022-10-15T11:07:17.338Z,32.90
2022-10-15T11:10:46.715Z,38.70
2022-10-15T11:14:32.011Z,35.35
2022-10-15T11:17:55.821Z,38.92
2022-10-15T11:21:25.673Z,45.42
2022-10-15T11:24:49.164Z,34.97
2022-10-15T11:28:12.877Z,35.20
2022-10-15T11:31:18.282Z,42.50
2022-10-15T11:34:49.038Z,45.30
2022-10-15T11:38:17.846Z,43.17
2022-10-15T11:41:58.142Z,44.17
2022-10-15T11:45:03.071Z,37.22
2022-10-15T11:48:29.665Z,42.05
2022-10-15T11:51:49.725Z,33.25
2022-10-15T11:58:06.614Z,33.95
2022-10-15T12:01:42.665Z,44.45
2022-10-15T12:04:51.923Z,39.60
2022-10-15T12:07:55.059Z,40.20
2022-10-15T12:11:04.684Z,43.53
2022-10-15T12:14:36.781Z,37.45
2022-10-15T12:18:00.654Z,38.50
2022-10-15T12:21:02.856Z,40.25
2022-10-15T12:24:26.373Z,47.90
2022-10-15T12:27:34.403Z,39.58
2022-10-15T12:30:37.829Z,37.58
2022-10-15T12:33:49.038Z,33.28
2022-10-15T12:37:16.515Z,40.33
2022-10-15T12:40:31.410Z,44.50
2022-10-15T12:43:36.380Z,36.25
2022-10-15T12:46:40.228Z,40.15
2022-10-15T12:49:42.484Z,32.15
2022-10-15T12:52:53.866Z,37.30
2022-10-15T12:56:12.227Z,35.33
2022-10-15T12:59:31.990Z,41.70
2022-10-15T13:06:20.804Z,38.97
2022-10-15T13:09:29.436Z,33.05
2022-10-15T13:12:32.612Z,42.35
2022-10-15T13:15:34.972Z,39.38
2022-10-15T13:18:37.710Z,46.67
2022-10-15T13:21:50.813Z,42.40
2022-10-15T13:24:53.190Z,33.28
2022-10-15T13:27:55.325Z,36.90
2022-10-15T13:30:58.265Z,33.42
2022-10-15T13:34:13.830Z,32.72
2022-10-15T13:37:20.262Z,33.30
2022-10-15T13:40:28.156Z,37.78
2022-10-15T13:43:30.433Z,31.98
2022-10-15T13:46:39.736Z,29.67
2022-10-15T13:49:41.817Z,32.13
2022-10-15T13:52:58.117Z,33.45
2022-10-15T13:56:14.992Z,35.58
2022-10-15T13:59:18.926Z,32.53
2022-10-15T14:02:21.304Z,38.10
2022-10-15T14:05:24.474Z,30.42
2022-10-15T14:08:29.037Z,30.05
2022-10-15T14:11:36.536Z,30.75
2022-10-15T14:14:41.627Z,37.10
2022-10-15T14:17:43.885Z,30.10
2022-10-15T14:20:47.953Z,29.67
2022-10-15T14:23:50.261Z,26.92
2022-10-15T14:26:52.563Z,34.08
2022-10-15T14:30:01.369Z,30.23
2022-10-15T14:33:03.623Z,33.50
2022-10-15T14:36:23.175Z,32.08
2022-10-15T14:39:36.788Z,31.75
2022-10-15T14:42:44.770Z,27.67
2022-10-15T14:45:52.714Z,33.72
2022-10-15T14:48:54.958Z,37.05
2022-10-15T14:52:14.883Z,35.10
2022-10-15T14:55:34.993Z,36.17
2022-10-15T15:01:40.145Z,24.80
2022-10-15T15:04:50.704Z,28.92
2022-10-15T15:07:54.194Z,30.40
2022-10-15T15:10:58.247Z,31.33
2022-10-15T15:14:01.241Z,30.45
2022-10-15T15:17:03.339Z,31.35
2022-10-15T15:20:05.873Z,27.42
2022-10-15T15:23:14.543Z,26.45
2022-10-15T15:26:16.669Z,26.55
2022-10-15T15:29:18.940Z,24.30
2022-10-15T15:32:24.140Z,26.40
2022-10-15T15:35:39.303Z,24.70
2022-10-15T15:38:41.637Z,23.10
2022-10-15T15:41:43.939Z,29.30
2022-10-15T15:44:46.927Z,27.67
2022-10-15T15:47:49.576Z,26.25
2022-10-15T15:50:52.347Z,26.98
2022-10-15T15:53:54.968Z,26.38
2022-10-15T15:56:57.200Z,25.10
2022-10-15T15:59:59.392Z,24.77
2022-10-15T16:03:01.500Z,24.73
2022-10-15T16:06:07.243Z,26.70
2022-10-15T16:09:09.402Z,25.10
2022-10-15T16:12:11.690Z,26.52
2022-10-15T16:15:14.991Z,24.63
2022-10-15T16:18:17.507Z,25.42
2022-10-15T16:21:26.552Z,24.02
2022-10-15T16:24:28.909Z,23.08
2022-10-15T16:27:32.881Z,22.17
2022-10-15T16:30:35.285Z,26.20
2022-10-15T16:33:37.419Z,24.48
2022-10-15T16:36:40.655Z,22.13
2022-10-15T16:39:42.843Z,23.90
2022-10-15T16:42:44.953Z,23.27
2022-10-15T16:45:58.404Z,23.10
2022-10-15T16:49:00.537Z,21.38
2022-10-15T16:52:02.665Z,22.95
2022-10-15T16:55:05.050Z,24.13
2022-10-15T16:58:07.137Z,24.23
2022-10-15T17:01:13.164Z,23.40
2022-10-15T17:04:15.498Z,24.77
2022-10-15T17:07:17.669Z,28.65
2022-10-15T17:10:25.682Z,23.30
2022-10-15T17:13:27.821Z,24.88
2022-10-15T17:16:36.541Z,27.55
2022-10-15T17:19:38.668Z,22.90
2022-10-15T17:22:40.811Z,26.50
2022-10-15T17:25:43.341Z,25.52
2022-10-15T17:28:46.935Z,25.40
2022-10-15T17:31:50.447Z,27.13
2022-10-15T17:34:52.533Z,22.65
2022-10-15T17:37:54.584Z,25.08
2022-10-15T17:40:56.957Z,22.30
2022-10-15T17:43:59.109Z,24.85
2022-10-15T17:47:01.225Z,24.98
2022-10-15T17:50:03.478Z,26.45
2022-10-15T17:53:06.046Z,22.25
2022-10-15T17:56:17.170Z,25.38
2022-10-15T17:59:19.772Z,23.58
2022-10-15T18:02:21.924Z,22.13
2022-10-15T18:05:27.208Z,23.75
2022-10-15T18:08:29.288Z,26.02
2022-10-15T18:11:34.184Z,25.55
2022-10-15T18:14:37.002Z,21.13
2022-10-15T18:17:39.176Z,22.65
2022-10-15T18:20:42.501Z,23.90
2022-10-15T18:23:45.373Z,22.20
2022-10-15T18:26:48.156Z,22.33
2022-10-15T18:29:50.770Z,23.35
2022-10-15T18:32:55.797Z,26.85
2022-10-15T18:36:08.967Z,23.05
2022-10-15T18:39:11.808Z,22.55
2022-10-15T18:42:13.995Z,22.27
2022-10-15T18:45:16.211Z,24.70
2022-10-15T18:48:18.276Z,24.52
2022-10-15T18:51:20.968Z,24.50
2022-10-15T18:54:23.821Z,24.17
2022-10-15T18:57:25.976Z,26.67
2022-10-15T19:00:29.302Z,21.30
2022-10-15T19:03:31.435Z,30.80
2022-10-15T19:06:37.731Z,27.63
2022-10-15T19:09:39.815Z,27.80
2022-10-15T19:12:41.951Z,28.50
2022-10-15T19:15:44.058Z,26.70
2022-10-15T19:18:46.211Z,29.85
2022-10-15T19:21:50.140Z,25.25
2022-10-15T19:24:52.357Z,29.50
2022-10-15T19:27:54.556Z,32.38
2022-10-15T19:30:58.692Z,28.88
2022-10-15T19:34:01.164Z,28.60
2022-10-15T19:37:06.618Z,30.00
2022-10-15T19:40:11.474Z,29.25
2022-10-15T19:43:13.937Z,34.88
2022-10-15T19:46:16.275Z,33.95
2022-10-15T19:49:23.519Z,32.42
2022-10-15T19:52:25.901Z,29.13
2022-10-15T19:55:28.071Z,28.88
2022-10-15T19:58:32.354Z,31.48
2022-10-15T20:01:36.213Z,28.73
2022-10-15T20:04:38.509Z,31.48
2022-10-15T20:07:40.694Z,30.30
2022-10-15T20:10:44.740Z,29.58
2022-10-15T20:13:47.677Z,33.13
2022-10-15T20:16:49.892Z,32.80
2022-10-15T20:19:51.997Z,31.23
2022-10-15T20:22:54.186Z,32.05
2022-10-15T20:25:56.343Z,33.03
2022-10-15T20:28:58.558Z,34.38
2022-10-15T20:32:10.954Z,34.20
2022-10-15T20:35:24.647Z,32.13
2022-10-15T20:38:26.796Z,30.50
2022-10-15T20:41:29.168Z,34.10
2022-10-15T20:44:31.355Z,32.75
2022-10-15T20:47:35.174Z,34.35
2022-10-15T20:50:37.371Z,35.97
2022-10-15T20:53:40.471Z,33.88
2022-10-15T20:56:42.813Z,34.28
2022-10-15T20:59:44.958Z,35.30
2022-10-15T21:02:47.023Z,33.47
2022-10-15T21:05:49.221Z,34.83
2022-10-15T21:08:51.545Z,37.22
2022-10-15T21:11:53.686Z,36.42
2022-10-15T21:14:56.397Z,36.05
2022-10-15T21:17:58.732Z,34.05
2022-10-15T21:21:02.779Z,39.05
2022-10-15T21:24:05.190Z,31.27
2022-10-15T21:27:10.265Z,36.13
2022-10-15T21:30:12.439Z,37.53
2022-10-15T21:33:14.633Z,35.65
2022-10-15T21:36:22.410Z,34.47
2022-10-15T21:39:24.601Z,36.25
2022-10-15T21:42:29.223Z,40.42
2022-10-15T21:45:32.319Z,38.72
2022-10-15T21:48:36.685Z,36.90
2022-10-15T21:51:38.892Z,38.75
2022-10-15T21:54:41.158Z,35.88
2022-10-15T21:57:43.405Z,38.05
2022-10-15T22:00:45.606Z,37.35
2022-10-15T22:03:49.159Z,38.15
2022-10-15T22:06:51.293Z,40.97
2022-10-15T22:09:53.576Z,39.00
2022-10-15T22:12:55.670Z,37.05
2022-10-15T22:16:00.360Z,39.20
2022-10-15T22:19:03.285Z,38.40
2022-10-15T22:22:05.445Z,40.80
2022-10-15T22:25:07.720Z,39.72
2022-10-15T22:28:10.303Z,35.45
2022-10-15T22:31:15.158Z,38.28
2022-10-15T22:34:18.074Z,37.45
2022-10-15T22:37:20.133Z,38.85
2022-10-15T22:40:22.847Z,37.05
2022-10-15T22:43:25.290Z,38.08
2022-10-15T22:46:28.207Z,39.80
2022-10-15T22:49:30.340Z,37.15
2022-10-15T22:52:32.567Z,40.90
2022-10-15T22:55:34.917Z,44.58
2022-10-15T22:58:37.791Z,39.67
2022-10-15T23:01:40.247Z,36.13
2022-10-15T23:04:42.452Z,35.75
2022-10-15T23:07:44.710Z,36.22
2022-10-15T23:10:46.909Z,39.72
2022-10-15T23:13:54.056Z,39.28
2022-10-15T23:16:56.247Z,37.28
2022-10-15T23:19:58.664Z,40.33
2022-10-15T23:23:00.988Z,37.75
2022-10-15T23:26:03.315Z,40.92
2022-10-15T23:29:07.393Z,37.92
2022-10-15T23:32:09.803Z,39.17
2022-10-15T23:35:12.211Z,39.22
2022-10-15T23:38:14.529Z,38.50
2022-10-15T23:41:16.958Z,37.65
2022-10-15T23:44:20.086Z,40.05
2022-10-15T23:47:22.241Z,38.15
2022-10-15T23:50:24.522Z,41.97
2022-10-15T23:53:27.472Z,41.42
2022-10-15T23:56:31.033Z,39.50
2022-10-15T23:59:33.173Z,36.17
